Bristol, Florida
Current Conditions -  °F | °C
As of 3:15 AM on Tuesday 21 Oct 2014 (Local Time) from K2J9 Reporting Station
Overcast Overcast  
Wind Chill: 57°   Ceiling: 3800
Heat Index: 57°   Visibility: 7mi
Dew Point: 57°   Wind: 0mph
Humidity: 100%   Direction: NA
Pressure: 30"   Gusts: NA
Location:  30.43°N, 84.98°W
Report Text: K2J9 210715Z AUTO 00000KT 7SM OVC038 14/14 A3000 RMK AO1
Loading
Personal Weather Stations






























Interactive Weather Map
Tropical Storm Tracking
New forecast layout! Learn more

10-Day Weather Forecast

Advertisements
Track Severe Weather on mobile